Test XHTML 1.0 Strict Page for WU-History Testing
Station Historical Data
Daily Summary for May 20, 2017 Units:  English    Metric   Both
« Previous Day
Next Day »
Daily Weekly Monthly Yearly Custom
  High: Low: Average:
Temperature: 58.5 °F 40.5 °F 50 °F
Dew Point: 56.0 °F 40.5 °F 47.7 °F
Humidity: 100 % 71 % 93 %
Wind Speed: 10.1 mph 0.0 mph 1.4 mph
Wind Gust: 10.1 mph - -
Wind:- - SSW
Pressure: 30.13 in 29.92 in -
Precipitation: 0.10 in    
Historical Graphs
 
 
Weather-Above Climate History
Untitled
Tabular Data for May 20, 2017
Time Temperature Dew Point Pressure Wind Wind Speed Wind Gust Humidity Rainfall Rate (Hourly) solar Conditions
00:03 48.2 °F 48.2 °F 29.92 in Calm     100 % 0.00 in 0.0 W/m2
00:09 48.0 °F 48.0 °F 29.92 in Calm     100 % 0.00 in 27.5 W/m2 CLR
00:14 47.7 °F 47.7 °F 29.92 in Calm     100 % 0.00 in 20.0 W/m2 CLR
00:19 47.1 °F 47.1 °F 29.92 in Calm     100 % 0.00 in 0.0 W/m2
00:24 47.1 °F 47.1 °F 29.92 in Calm     100 % 0.00 in 0.0 W/m2
00:29 47.3 °F 47.3 °F 29.93 in Calm     100 % 0.00 in 32.5 W/m2 OVC
00:34 47.3 °F 47.3 °F 29.92 in Calm     100 % 0.00 in 0.0 W/m2 OVC
00:39 47.5 °F 47.5 °F 29.92 in Calm     100 % 0.00 in 0.0 W/m2
00:44 47.3 °F 47.3 °F 29.92 in Calm     100 % 0.00 in 20.0 W/m2
00:49 46.8 °F 46.8 °F 29.92 in Calm     100 % 0.00 in 0.0 W/m2 CLR
00:54 46.4 °F 46.4 °F 29.92 in Calm     100 % 0.00 in 0.0 W/m2 CLR
00:59 45.9 °F 45.9 °F 29.92 in Calm     100 % 0.00 in 17.5 W/m2 CLR
01:04 45.7 °F 45.7 °F 29.92 in Calm     100 % 0.00 in 0.0 W/m2 RA
01:09 45.3 °F 45.3 °F 29.93 in Calm     100 % 0.00 in 15.0 W/m2 RA
01:14 45.1 °F 45.1 °F 29.93 in Calm     100 % 0.00 in 17.5 W/m2 CLR
01:19 45.0 °F 45.0 °F 29.93 in Calm     100 % 0.00 in 0.0 W/m2 CLR
01:25 45.0 °F 45.0 °F 29.93 in Calm     100 % 0.00 in 0.0 W/m2 CLR
01:30 44.6 °F 44.6 °F 29.92 in Calm     100 % 0.00 in 20.0 W/m2 CLR
01:35 44.6 °F 44.6 °F 29.92 in Calm     100 % 0.00 in 0.0 W/m2 CLR
01:40 44.6 °F 44.6 °F 29.92 in Calm     100 % 0.00 in 0.0 W/m2 CLR
01:45 44.6 °F 44.6 °F 29.93 in Calm     100 % 0.00 in 17.5 W/m2 CLR
01:50 44.4 °F 44.4 °F 29.93 in Calm     100 % 0.00 in 0.0 W/m2 CLR
01:55 44.4 °F 44.4 °F 29.93 in Calm     100 % 0.00 in 0.0 W/m2 CLR
02:00 44.4 °F 44.4 °F 29.93 in Calm     100 % 0.00 in 0.0 W/m2 CLR
02:05 44.1 °F 44.1 °F 29.93 in Calm     100 % 0.00 in 0.0 W/m2 CLR
02:10 43.9 °F 43.9 °F 29.92 in Calm     100 % 0.00 in 0.0 W/m2 CLR
02:15 43.7 °F 43.7 °F 29.93 in Calm     100 % 0.00 in 0.0 W/m2 CLR
02:20 43.7 °F 43.7 °F 29.92 in Calm     100 % 0.00 in 17.5 W/m2 CLR
02:25 43.7 °F 43.7 °F 29.92 in Calm     100 % 0.00 in 0.0 W/m2 CLR
02:30 43.7 °F 43.7 °F 29.92 in Calm     100 % 0.00 in 17.5 W/m2 CLR
02:35 43.5 °F 43.5 °F 29.92 in Calm     100 % 0.00 in 30.0 W/m2 CLR
02:40 43.5 °F 43.5 °F 29.93 in Calm     100 % 0.00 in 0.0 W/m2 CLR
02:45 43.5 °F 43.5 °F 29.92 in Calm     100 % 0.00 in 0.0 W/m2 CLR
02:50 43.3 °F 43.3 °F 29.92 in Calm     100 % 0.00 in 17.5 W/m2 CLR
02:55 43.3 °F 43.3 °F 29.92 in Calm     100 % 0.00 in 20.0 W/m2 CLR
03:00 43.2 °F 43.2 °F 29.93 in Calm     100 % 0.00 in 0.0 W/m2 CLR
03:05 42.8 °F 42.8 °F 29.93 in Calm     100 % 0.00 in 17.5 W/m2 CLR
03:11 42.8 °F 42.8 °F 29.93 in Calm     100 % 0.00 in 20.0 W/m2 CLR
03:16 42.6 °F 42.6 °F 29.92 in Calm     100 % 0.00 in 0.0 W/m2 CLR
03:21 42.8 °F 42.8 °F 29.92 in Calm     100 % 0.00 in 17.5 W/m2 CLR
03:26 43.0 °F 43.0 °F 29.92 in Calm     100 % 0.00 in 17.5 W/m2
03:31 43.2 °F 43.2 °F 29.93 in Calm     100 % 0.00 in 22.5 W/m2
03:36 43.5 °F 43.5 °F 29.93 in Calm     100 % 0.00 in 0.0 W/m2 OVC
03:41 43.5 °F 43.5 °F 29.93 in Calm     100 % 0.00 in 17.5 W/m2 OVC
03:46 43.7 °F 43.7 °F 29.93 in Calm     100 % 0.00 in 0.0 W/m2 OVC
03:51 43.9 °F 43.9 °F 29.93 in Calm     100 % 0.00 in 0.0 W/m2 OVC
03:56 44.1 °F 44.1 °F 29.93 in Calm     100 % 0.00 in 25.0 W/m2
04:01 43.7 °F 43.7 °F 29.93 in Calm     100 % 0.00 in 0.0 W/m2 CLR
04:06 43.5 °F 43.5 °F 29.93 in Calm     100 % 0.00 in 0.0 W/m2 CLR
04:11 43.3 °F 43.3 °F 29.93 in Calm     100 % 0.00 in 20.0 W/m2 CLR
04:16 43.3 °F 43.3 °F 29.93 in Calm     100 % 0.00 in 0.0 W/m2
04:21 43.5 °F 43.5 °F 29.93 in Calm     100 % 0.00 in 0.0 W/m2 CLR
04:26 43.2 °F 43.2 °F 29.92 in Calm     100 % 0.00 in 32.5 W/m2 CLR
04:31 42.6 °F 42.6 °F 29.92 in Calm     100 % 0.00 in 17.5 W/m2 CLR
04:36 42.4 °F 42.4 °F 29.93 in Calm     100 % 0.00 in 0.0 W/m2 CLR
04:41 42.3 °F 42.3 °F 29.92 in Calm     100 % 0.00 in 0.0 W/m2 CLR
04:47 42.3 °F 42.3 °F 29.92 in Calm     100 % 0.00 in 20.0 W/m2 CLR
04:52 41.9 °F 41.9 °F 29.92 in Calm     100 % 0.00 in 0.0 W/m2 CLR
04:57 41.7 °F 41.7 °F 29.92 in Calm     100 % 0.00 in 0.0 W/m2 CLR
05:02 41.5 °F 41.5 °F 29.92 in Calm     100 % 0.00 in 0.1 W/m2 OVC
05:07 41.5 °F 41.5 °F 29.92 in Calm     100 % 0.00 in 0.1 W/m2 OVC
05:12 41.4 °F 41.4 °F 29.93 in Calm     100 % 0.00 in 0.1 W/m2 OVC
05:17 41.0 °F 41.0 °F 29.93 in Calm     100 % 0.00 in 35.0 W/m2 OVC
05:22 41.0 °F 41.0 °F 29.93 in Calm     100 % 0.00 in 0.7 W/m2 OVC
05:27 41.0 °F 41.0 °F 29.93 in Calm     100 % 0.00 in 1.1 W/m2 OVC
05:32 41.0 °F 41.0 °F 29.93 in Calm     100 % 0.00 in 20.0 W/m2 OVC
05:37 41.0 °F 41.0 °F 29.93 in Calm     100 % 0.00 in 2.0 W/m2 OVC
05:42 40.6 °F 40.6 °F 29.93 in Calm     100 % 0.00 in 2.6 W/m2
05:47 40.5 °F 40.5 °F 29.93 in Calm     100 % 0.00 in 42.5 W/m2
05:52 40.8 °F 40.8 °F 29.93 in Calm     100 % 0.00 in 3.9 W/m2
05:57 40.5 °F 40.5 °F 29.93 in Calm     100 % 0.00 in 4.7 W/m2
06:02 40.5 °F 40.5 °F 29.94 in Calm     100 % 0.00 in 80.0 W/m2
06:07 40.5 °F 40.5 °F 29.93 in Calm     100 % 0.00 in 6.9 W/m2
06:12 40.5 °F 40.5 °F 29.94 in Calm     100 % 0.00 in 10.8 W/m2
06:17 40.6 °F 40.6 °F 29.94 in Calm     100 % 0.00 in 70.0 W/m2
06:28 41.0 °F 41.0 °F 29.94 in Calm     100 % 0.00 in 15.4 W/m2 OVC
06:33 41.4 °F 41.4 °F 29.93 in Calm     100 % 0.00 in 75.0 W/m2 OVC
06:38 41.4 °F 41.4 °F 29.94 in Calm     100 % 0.00 in 52.5 W/m2 OVC
06:43 41.9 °F 41.9 °F 29.94 in Calm     100 % 0.00 in 20.9 W/m2 OVC
06:48 42.3 °F 42.3 °F 29.94 in Calm     100 % 0.00 in 52.5 W/m2 OVC
06:53 42.4 °F 42.4 °F 29.94 in Calm     100 % 0.00 in 107.5 W/m2 OVC
06:58 43.2 °F 43.2 °F 29.94 in Calm     100 % 0.00 in 29.0 W/m2 OVC
07:03 43.5 °F 43.5 °F 29.94 in Calm     100 % 0.00 in 95.0 W/m2 OVC
07:08 44.4 °F 44.4 °F 29.94 in Calm     100 % 0.00 in 75.0 W/m2 OVC
07:13 44.8 °F 44.8 °F 29.94 in SSE 1.0 mph 1.0 mph 100 % 0.00 in 44.0 W/m2 OVC
07:18 45.3 °F 45.3 °F 29.94 in South 2.3 mph 2.3 mph 100 % 0.00 in 112.5 W/m2 OVC
07:23 45.5 °F 45.5 °F 29.94 in Calm     100 % 0.00 in 125.0 W/m2 OVC
07:28 45.9 °F 45.9 °F 29.94 in Calm     100 % 0.00 in 54.2 W/m2 OVC
07:33 46.2 °F 46.2 °F 29.94 in West 1.2 mph   100 % 0.00 in 172.5 W/m2 OVC
07:38 46.6 °F 46.6 °F 29.94 in ESE 2.6 mph 2.6 mph 100 % 0.00 in 145.0 W/m2 OVC
07:43 46.9 °F 46.9 °F 29.94 in SSE 1.5 mph 1.5 mph 100 % 0.00 in 66.1 W/m2 OVC
07:48 47.3 °F 47.3 °F 29.94 in South 1.2 mph 1.2 mph 100 % 0.00 in 170.0 W/m2 BKN
07:53 47.7 °F 47.4 °F 29.95 in Calm     99 % 0.00 in 197.5 W/m2 BKN
07:58 47.7 °F 47.4 °F 29.95 in SSE 3.5 mph 3.5 mph 99 % 0.00 in 219.7 W/m2 BKN
08:03 48.2 °F 47.7 °F 29.95 in SSE 2.3 mph 2.3 mph 98 % 0.00 in 252.5 W/m2 BKN
08:09 48.2 °F 47.7 °F 29.95 in South 1.2 mph   98 % 0.00 in 270.0 W/m2 BKN
08:14 48.4 °F 47.8 °F 29.95 in SSW 2.5 mph 2.5 mph 98 % 0.00 in 424.5 W/m2 BKN
08:19 48.7 °F 47.4 °F 29.95 in West 4.0 mph 4.0 mph 95 % 0.00 in 215.0 W/m2 BKN
08:24 48.7 °F 47.4 °F 29.95 in WSW 7.6 mph 7.6 mph 95 % 0.00 in 322.5 W/m2 SCT
08:29 49.3 °F 47.3 °F 29.95 in Calm     93 % 0.00 in 393.3 W/m2 SCT
08:34 49.5 °F 47.8 °F 29.95 in WSW 1.5 mph 1.5 mph 94 % 0.00 in 357.5 W/m2 SCT
08:39 49.8 °F 48.4 °F 29.95 in South 1.8 mph 1.8 mph 95 % 0.00 in 410.0 W/m2 FEW
08:44 50.7 °F 48.2 °F 29.95 in SSW 2.5 mph 2.5 mph 91 % 0.00 in 387.5 W/m2 CLR
08:49 51.1 °F 47.6 °F 29.95 in SSE 2.3 mph 2.3 mph 88 % 0.00 in 474.9 W/m2 FEW
08:54 51.3 °F 48.4 °F 29.95 in SW 4.7 mph 4.7 mph 90 % 0.00 in 385.0 W/m2 SCT
08:59 51.3 °F 47.8 °F 29.95 in SSE 4.0 mph 4.0 mph 88 % 0.00 in 432.5 W/m2 FEW
09:04 52.2 °F 49.0 °F 29.95 in South 0.8 mph 0.8 mph 89 % 0.00 in 420.0 W/m2 CLR
09:09 52.5 °F 48.8 °F 29.95 in NW 2.5 mph 2.5 mph 87 % 0.00 in 387.5 W/m2 CLR
09:14 53.1 °F 48.4 °F 29.95 in SW 1.2 mph 1.2 mph 84 % 0.00 in 483.4 W/m2 FEW
09:19 54.0 °F 49.6 °F 29.95 in WSW 7.3 mph 7.3 mph 85 % 0.00 in 280.0 W/m2 SCT
09:24 53.4 °F 48.4 °F 29.95 in East 1.0 mph 1.0 mph 83 % 0.00 in 310.0 W/m2 BKN
09:29 53.6 °F 48.9 °F 29.95 in West 5.8 mph 5.8 mph 84 % 0.00 in 337.5 W/m2 BKN
09:34 53.6 °F 49.5 °F 29.95 in Calm     86 % 0.00 in 213.9 W/m2 BKN
09:39 54.3 °F 48.6 °F 29.96 in SSE 3.5 mph 3.5 mph 81 % 0.00 in 470.0 W/m2 BKN
09:44 55.2 °F 49.2 °F 29.96 in SW 3.5 mph 3.5 mph 80 % 0.00 in 302.5 W/m2 BKN
09:50 55.2 °F 49.8 °F 29.95 in Calm     82 % 0.00 in 298.3 W/m2 BKN
09:55 56.3 °F 49.5 °F 29.95 in SSW 5.8 mph 5.8 mph 78 % 0.00 in 287.5 W/m2 BKN
10:00 55.4 °F 48.7 °F 29.96 in NNW 1.2 mph 1.2 mph 78 % 0.00 in 352.5 W/m2 BKN
10:05 55.8 °F 48.7 °F 29.96 in East 4.6 mph 4.6 mph 77 % 0.00 in 582.3 W/m2 BKN
10:10 55.8 °F 50.0 °F 29.96 in SW 4.6 mph 4.6 mph 81 % 0.00 in 317.5 W/m2 BKN
10:15 55.9 °F 49.2 °F 29.96 in SSE 2.3 mph 2.3 mph 78 % 0.00 in 302.5 W/m2 BKN
10:20 55.8 °F 49.3 °F 29.96 in West 3.6 mph 3.6 mph 79 % 0.00 in 392.7 W/m2 BKN
10:25 55.8 °F 49.0 °F 29.96 in SSE 2.3 mph 2.3 mph 78 % 0.00 in 332.5 W/m2 BKN
10:30 56.1 °F 49.0 °F 29.97 in SSE 2.3 mph 2.3 mph 77 % 0.00 in 432.5 W/m2 BKN
10:35 56.7 °F 50.2 °F 29.97 in South 9.0 mph 9.0 mph 79 % 0.00 in 515.0 W/m2 BKN
10:40 56.7 °F 50.2 °F 29.97 in SSE 2.3 mph 2.3 mph 79 % 0.00 in 405.0 W/m2 BKN
10:45 56.8 °F 50.1 °F 29.97 in West 3.5 mph 3.5 mph 78 % 0.00 in 340.0 W/m2 BKN
10:50 57.2 °F 50.4 °F 29.97 in SW 6.9 mph 6.9 mph 78 % 0.00 in 522.5 W/m2 SCT
10:55 56.8 °F 49.7 °F 29.97 in SW 1.2 mph 1.2 mph 77 % 0.00 in 350.0 W/m2 SCT
11:00 57.0 °F 49.9 °F 29.97 in SW 2.3 mph   77 % 0.00 in 430.0 W/m2 BKN
11:05 57.6 °F 50.0 °F 29.97 in South 1.2 mph 1.2 mph 76 % 0.00 in 622.0 W/m2 BKN
11:10 57.6 °F 49.7 °F 29.97 in SSE 4.6 mph 4.6 mph 75 % 0.00 in 387.5 W/m2 SCT
11:15 57.4 °F 49.9 °F 29.97 in SE 3.5 mph   76 % 0.00 in 327.5 W/m2 SCT
11:20 56.8 °F 50.1 °F 29.97 in ENE 6.9 mph 6.9 mph 78 % 0.00 in 477.3 W/m2 BKN
11:25 56.1 °F 50.0 °F 29.97 in SSW 7.3 mph 7.3 mph 80 % 0.00 in 325.0 W/m2 BKN
11:31 56.1 °F 51.0 °F 29.97 in ESE 2.6 mph 2.6 mph 83 % 0.00 in 297.5 W/m2 BKN
11:36 55.8 °F 51.3 °F 29.97 in Calm     85 % 0.00 in 472.8 W/m2 BKN
11:41 55.6 °F 50.8 °F 29.97 in SSE 2.6 mph 2.6 mph 84 % 0.00 in 260.0 W/m2 BKN
11:46 54.9 °F 50.4 °F 29.97 in South 5.8 mph 5.8 mph 85 % 0.00 in 374.4 W/m2 BKN
11:51 54.7 °F 50.6 °F 29.97 in WSW 2.3 mph   86 % 0.00 in 331.2 W/m2 BKN
11:56 54.5 °F 50.7 °F 29.97 in Calm     87 % 0.00 in 205.0 W/m2 BKN
12:01 54.3 °F 51.4 °F 29.97 in Calm     90 % 0.00 in 349.6 W/m2 BKN
12:06 54.3 °F 51.4 °F 29.97 in Calm     90 % 0.01 in 607.9 W/m2 RA
12:11 54.7 °F 51.8 °F 29.97 in South 4.6 mph 4.6 mph 90 % 0.01 in 392.5 W/m2 RA
12:16 55.0 °F 52.2 °F 29.97 in East 6.2 mph 6.2 mph 90 % 0.01 in 427.5 W/m2 BKN
12:21 54.7 °F 51.8 °F 29.97 in SSE 4.6 mph 4.6 mph 90 % 0.01 in 509.1 W/m2 BKN
12:26 54.5 °F 52.8 °F 29.97 in South 1.7 mph 1.7 mph 94 % 0.01 in 357.5 W/m2 BKN
12:31 55.0 °F 51.9 °F 29.97 in SSW 0.4 mph   89 % 0.02 in 529.1 W/m2 RA
12:36 54.3 °F 51.4 °F 29.97 in South 5.1 mph 5.1 mph 90 % 0.02 in 247.3 W/m2 BKN
12:41 53.6 °F 51.3 °F 29.97 in SSE 1.7 mph 1.7 mph 92 % 0.02 in 340.0 W/m2 BKN
12:46 54.3 °F 52.9 °F 29.97 in East 4.6 mph 4.6 mph 95 % 0.02 in 427.5 W/m2 BKN
12:51 54.9 °F 52.9 °F 29.97 in SSE 6.9 mph 6.9 mph 93 % 0.02 in 860.0 W/m2 SCT
12:56 55.4 °F 52.5 °F 29.97 in South 4.3 mph 4.3 mph 90 % 0.02 in 856.0 W/m2 FEW
13:01 56.1 °F 52.9 °F 29.97 in SSE 7.0 mph 7.0 mph 89 % 0.02 in 816.6 W/m2 CLR
13:06 56.3 °F 53.1 °F 29.97 in WSW 7.3 mph 7.3 mph 89 % 0.01 in 322.1 W/m2 FEW
13:12 55.8 °F 53.8 °F 29.97 in SSW 3.5 mph 3.5 mph 93 % 0.01 in 152.5 W/m2 BKN
13:17 54.7 °F 52.7 °F 29.97 in South 2.6 mph 2.6 mph 93 % 0.02 in 125.8 W/m2 RA
13:22 53.4 °F 52.6 °F 29.97 in SSE 3.6 mph 3.6 mph 97 % 0.02 in 115.4 W/m2 RA
13:27 52.7 °F 52.4 °F 29.97 in SE 3.2 mph 3.2 mph 99 % 0.03 in 114.7 W/m2 RA
13:32 52.2 °F 52.2 °F 29.97 in Calm     100 % 0.03 in 217.5 W/m2 RA
13:37 53.4 °F 53.4 °F 29.97 in Calm     100 % 0.03 in 600.3 W/m2 BKN
13:42 53.6 °F 53.6 °F 29.97 in Calm     100 % 0.03 in 419.7 W/m2 BKN
13:47 53.6 °F 53.3 °F 29.97 in NNE 0.4 mph 0.4 mph 99 % 0.03 in 115.0 W/m2 BKN
13:52 53.2 °F 53.2 °F 29.97 in WSW 3.5 mph 3.5 mph 100 % 0.03 in 110.3 W/m2 BKN
13:57 52.7 °F 52.7 °F 29.98 in South 6.9 mph 6.9 mph 100 % 0.05 in 30.2 W/m2 RA
14:02 51.3 °F 51.3 °F 29.98 in South 1.2 mph   100 % 0.08 in 57.5 W/m2 RA
14:07 50.4 °F 50.4 °F 29.98 in WSW 1.2 mph   100 % 0.09 in 124.5 W/m2 RA
14:12 50.2 °F 50.2 °F 29.98 in Calm     100 % 0.09 in 249.9 W/m2 RA
14:17 50.9 °F 50.9 °F 29.98 in Calm     100 % 0.08 in 285.0 W/m2 RA
14:22 52.0 °F 52.0 °F 29.98 in South 0.3 mph   100 % 0.06 in 487.7 W/m2 BKN
14:27 53.1 °F 53.1 °F 29.98 in South 0.6 mph 0.6 mph 100 % 0.05 in 744.0 W/m2 SCT
14:33 54.3 °F 53.8 °F 29.98 in Calm     98 % 0.05 in 545.0 W/m2 CLR
14:38 55.6 °F 54.7 °F 29.98 in South 4.6 mph 4.6 mph 97 % 0.05 in 610.1 W/m2 CLR
14:44 56.8 °F 56.0 °F 29.98 in SE 2.3 mph 2.3 mph 97 % 0.05 in 477.8 W/m2 FEW
14:49 56.3 °F 55.5 °F 29.98 in Calm     97 % 0.05 in 347.5 W/m2 BKN
14:54 56.5 °F 55.9 °F 29.98 in Calm     98 % 0.05 in 263.7 W/m2 BKN
14:59 56.1 °F 54.4 °F 29.98 in Calm     94 % 0.02 in 220.6 W/m2 BKN
15:04 54.9 °F 54.0 °F 29.99 in Calm     97 % 0.01 in 119.6 W/m2 BKN
15:09 54.3 °F 54.3 °F 29.99 in Calm     100 % 0.00 in 103.5 W/m2 OVC
15:14 54.3 °F 54.3 °F 29.99 in Calm     100 % 0.00 in 194.0 W/m2 OVC
15:20 54.9 °F 54.6 °F 29.99 in Calm     99 % 0.00 in 228.0 W/m2 BKN
15:25 54.7 °F 54.1 °F 29.99 in Calm     98 % 0.00 in 102.2 W/m2 BKN
15:30 54.5 °F 53.9 °F 29.99 in Calm     98 % 0.00 in 76.2 W/m2 OVC
15:35 54.0 °F 53.7 °F 29.99 in West 1.8 mph 1.8 mph 99 % 0.00 in 52.5 W/m2 OVC
15:40 53.4 °F 53.4 °F 29.99 in Calm     100 % 0.00 in 73.0 W/m2 OVC
15:45 53.6 °F 53.6 °F 29.99 in Calm     100 % 0.00 in 103.6 W/m2 OVC
15:50 55.2 °F 55.2 °F 29.99 in Calm     100 % 0.00 in 547.5 W/m2 BKN
15:55 56.7 °F 55.2 °F 29.99 in South 2.5 mph 2.5 mph 95 % 0.00 in 553.4 W/m2 BKN
16:00 57.2 °F 55.5 °F 29.99 in SSW 1.2 mph 1.2 mph 94 % 0.00 in 521.8 W/m2 FEW
16:05 58.5 °F 54.9 °F 29.99 in SE 4.6 mph 4.6 mph 88 % 0.00 in 390.0 W/m2 FEW
16:10 57.4 °F 55.1 °F 29.99 in East 3.5 mph 3.5 mph 92 % 0.00 in 179.8 W/m2 BKN
16:15 56.3 °F 54.0 °F 29.99 in Calm     92 % 0.00 in 200.0 W/m2 BKN
16:20 56.3 °F 53.4 °F 29.99 in SW 1.2 mph   90 % 0.00 in 272.5 W/m2 BKN
16:25 56.5 °F 53.6 °F 29.99 in West 1.2 mph 1.2 mph 90 % 0.00 in 200.8 W/m2 BKN
16:30 56.7 °F 51.6 °F 29.99 in NE 4.6 mph 4.6 mph 83 % 0.00 in 340.0 W/m2 BKN
16:36 57.4 °F 52.6 °F 29.99 in NW 3.5 mph   84 % 0.00 in 270.0 W/m2 BKN
16:41 57.2 °F 52.1 °F 29.99 in SSW 2.8 mph 2.8 mph 83 % 0.00 in 154.0 W/m2 BKN
16:46 57.6 °F 50.8 °F 29.99 in East 6.9 mph 6.9 mph 78 % 0.00 in 312.5 W/m2 BKN
16:51 57.9 °F 52.1 °F 30.00 in SW 10.1 mph 10.1 mph 81 % 0.00 in 277.5 W/m2 BKN
16:56 57.6 °F 51.4 °F 30.00 in Calm     80 % 0.00 in 127.9 W/m2 BKN
17:01 56.8 °F 51.1 °F 30.00 in NNE 5.8 mph 5.8 mph 81 % 0.00 in 175.0 W/m2 BKN
17:06 56.3 °F 49.9 °F 30.00 in SW 4.6 mph 4.6 mph 79 % 0.00 in 165.0 W/m2 BKN
17:11 55.9 °F 49.9 °F 30.00 in West 2.5 mph 2.5 mph 80 % 0.00 in 89.3 W/m2 OVC
17:16 55.8 °F 49.7 °F 30.00 in West 5.8 mph 5.8 mph 80 % 0.00 in 145.0 W/m2 OVC
17:21 55.9 °F 48.1 °F 30.00 in NNW 8.1 mph 8.1 mph 75 % 0.00 in 222.5 W/m2 BKN
17:26 56.7 °F 49.9 °F 30.00 in Calm     78 % 0.00 in 122.6 W/m2 BKN
17:31 57.0 °F 50.2 °F 30.00 in WNW 2.6 mph 2.6 mph 78 % 0.00 in 257.5 W/m2 BKN
17:36 57.2 °F 50.1 °F 30.00 in Calm     77 % 0.00 in 205.0 W/m2 BKN
17:41 56.7 °F 49.9 °F 30.00 in WNW 2.3 mph 2.3 mph 78 % 0.00 in 39.5 W/m2 BKN
17:46 55.8 °F 50.7 °F 30.01 in Calm     83 % 0.00 in 87.5 W/m2 OVC
17:51 55.0 °F 49.6 °F 30.01 in Calm     82 % 0.00 in 102.5 W/m2 OVC
17:56 55.2 °F 50.8 °F 30.01 in Calm     85 % 0.00 in 295.0 W/m2 OVC
18:01 55.6 °F 50.5 °F 30.01 in Calm     83 % 0.00 in 170.0 W/m2 BKN
18:06 55.2 °F 50.1 °F 30.00 in Calm     83 % 0.00 in 135.0 W/m2 OVC
18:11 55.6 °F 50.5 °F 30.01 in Calm     83 % 0.00 in 177.5 W/m2 OVC
18:17 55.9 °F 49.9 °F 30.00 in South 1.5 mph 1.5 mph 80 % 0.00 in 64.2 W/m2 BKN
18:22 55.6 °F 49.5 °F 30.01 in East 4.0 mph 4.0 mph 80 % 0.00 in 180.0 W/m2 OVC
18:27 55.8 °F 46.5 °F 30.01 in ESE 5.8 mph 5.8 mph 71 % 0.00 in 185.0 W/m2 BKN
18:32 55.9 °F 47.4 °F 30.01 in SW 7.7 mph 7.7 mph 73 % 0.00 in 75.6 W/m2 BKN
18:37 55.2 °F 47.8 °F 30.01 in SSE 3.5 mph 3.5 mph 76 % 0.00 in 155.0 W/m2 BKN
18:42 55.2 °F 48.1 °F 30.01 in ESE 3.7 mph 3.7 mph 77 % 0.00 in 160.0 W/m2 OVC
18:47 54.9 °F 47.8 °F 30.02 in NW 4.6 mph 4.6 mph 77 % 0.00 in 10.7 W/m2 OVC
18:52 54.5 °F 47.4 °F 30.02 in WNW 1.2 mph   77 % 0.00 in 125.0 W/m2 OVC
18:53 54.5 °F 47.1 °F 30.02 in WNW 5.8 mph 5.8 mph 76 % 0.00 in 135.0 W/m2 OVC
18:58 54.9 °F 48.1 °F 30.02 in West 1.2 mph 1.2 mph 78 % 0.00 in 142.5 W/m2 OVC
19:03 54.9 °F 47.4 °F 30.03 in SW 3.0 mph 3.0 mph 76 % 0.00 in 137.5 W/m2 OVC
19:08 55.0 °F 48.3 °F 30.03 in West 2.3 mph 2.3 mph 78 % 0.00 in 140.0 W/m2 OVC
19:13 54.9 °F 48.8 °F 30.03 in ESE 0.6 mph 0.6 mph 80 % 0.00 in 137.5 W/m2 OVC
19:18 54.0 °F 48.6 °F 30.03 in Calm     82 % 0.00 in 4.9 W/m2 OVC
19:23 54.3 °F 46.6 °F 30.04 in West 2.3 mph 2.3 mph 75 % 0.00 in 100.0 W/m2 OVC
19:28 54.3 °F 46.6 °F 30.04 in SSE 6.9 mph 6.9 mph 75 % 0.00 in 95.0 W/m2 OVC
19:33 54.3 °F 47.3 °F 30.04 in Calm     77 % 0.00 in 2.4 W/m2 OVC
19:38 54.1 °F 46.4 °F 30.05 in NW 1.2 mph 1.2 mph 75 % 0.00 in 90.0 W/m2 OVC
19:44 53.4 °F 49.3 °F 30.05 in West 1.7 mph 1.7 mph 86 % 0.00 in 85.0 W/m2 OVC
19:49 53.2 °F 47.2 °F 30.05 in Calm     80 % 0.00 in 0.7 W/m2 OVC
19:54 53.6 °F 46.2 °F 30.05 in Calm     76 % 0.00 in 52.5 W/m2 OVC
19:59 53.6 °F 47.6 °F 30.05 in Calm     80 % 0.00 in 62.5 W/m2 OVC
20:04 53.8 °F 47.1 °F 30.05 in Calm     78 % 0.00 in 47.5 W/m2 OVC
20:09 53.6 °F 48.6 °F 30.05 in South 1.7 mph 1.7 mph 83 % 0.00 in 27.5 W/m2 OVC
20:14 53.6 °F 46.2 °F 30.05 in SW 2.9 mph 2.9 mph 76 % 0.00 in 22.5 W/m2 OVC
20:19 53.4 °F 47.4 °F 30.06 in Calm     80 % 0.00 in 27.5 W/m2 OVC
20:24 53.1 °F 47.4 °F 30.06 in West 4.6 mph 4.6 mph 81 % 0.00 in 25.0 W/m2 OVC
20:29 52.7 °F 48.0 °F 30.07 in NNE 1.2 mph   84 % 0.00 in 20.0 W/m2 OVC
20:34 52.2 °F 48.7 °F 30.07 in WSW 0.1 mph   88 % 0.00 in 35.0 W/m2 OVC
20:39 52.2 °F 48.7 °F 30.07 in Calm     88 % 0.00 in 20.0 W/m2 OVC
20:44 51.8 °F 48.4 °F 30.07 in Calm     88 % 0.00 in 32.5 W/m2 OVC
20:49 51.8 °F 47.1 °F 30.07 in Calm     84 % 0.00 in 25.0 W/m2 OVC
20:54 51.3 °F 48.4 °F 30.07 in Calm     90 % 0.00 in 22.5 W/m2 OVC
20:59 50.5 °F 48.0 °F 30.07 in Calm     91 % 0.00 in 27.5 W/m2 OVC
21:04 50.0 °F 47.8 °F 30.07 in Calm     92 % 0.00 in 30.0 W/m2 OVC
21:09 49.5 °F 48.1 °F 30.08 in Calm     95 % 0.00 in 27.5 W/m2 OVC
21:14 48.9 °F 48.1 °F 30.08 in Calm     97 % 0.00 in 20.0 W/m2 CLR
21:20 48.7 °F 47.9 °F 30.08 in SSE 2.3 mph 2.3 mph 97 % 0.00 in 0.0 W/m2
21:25 49.1 °F 48.0 °F 30.08 in Calm     96 % 0.00 in 0.0 W/m2
21:30 49.1 °F 48.3 °F 30.08 in Calm     97 % 0.00 in 0.0 W/m2
21:35 49.1 °F 48.0 °F 30.08 in Calm     96 % 0.00 in 20.0 W/m2 CLR
21:40 48.6 °F 47.7 °F 30.09 in Calm     97 % 0.00 in 0.0 W/m2 CLR
21:45 48.4 °F 47.6 °F 30.09 in Calm     97 % 0.00 in 0.0 W/m2 CLR
21:50 48.2 °F 47.7 °F 30.10 in Calm     98 % 0.00 in 17.5 W/m2 CLR
21:55 48.0 °F 47.8 °F 30.10 in Calm     99 % 0.00 in 0.0 W/m2 CLR
22:00 48.0 °F 47.8 °F 30.10 in Calm     99 % 0.00 in 0.0 W/m2 CLR
22:05 47.7 °F 47.7 °F 30.10 in Calm     100 % 0.00 in 25.0 W/m2 CLR
22:10 47.3 °F 47.3 °F 30.11 in SSW 1.2 mph 1.2 mph 100 % 0.00 in 0.0 W/m2 CLR
22:15 47.3 °F 47.3 °F 30.11 in Calm     100 % 0.00 in 17.5 W/m2 CLR
22:20 47.1 °F 47.1 °F 30.11 in Calm     100 % 0.00 in 17.5 W/m2 CLR
22:25 47.3 °F 47.3 °F 30.11 in Calm     100 % 0.00 in 17.5 W/m2 CLR
22:30 46.8 °F 46.8 °F 30.11 in Calm     100 % 0.00 in 0.0 W/m2 CLR
22:35 46.4 °F 46.4 °F 30.11 in Calm     100 % 0.00 in 17.5 W/m2 CLR
22:40 46.4 °F 46.4 °F 30.11 in Calm     100 % 0.00 in 30.0 W/m2 CLR
22:46 46.2 °F 46.2 °F 30.11 in Calm     100 % 0.00 in 0.0 W/m2 CLR
22:51 45.9 °F 45.9 °F 30.11 in Calm     100 % 0.00 in 17.5 W/m2 CLR
22:56 45.7 °F 45.7 °F 30.11 in Calm     100 % 0.00 in 20.0 W/m2 CLR
23:01 45.5 °F 45.5 °F 30.11 in Calm     100 % 0.00 in 0.0 W/m2 CLR
23:06 45.3 °F 45.3 °F 30.12 in Calm     100 % 0.00 in 15.0 W/m2 CLR
23:11 45.1 °F 45.1 °F 30.12 in Calm     100 % 0.00 in 42.5 W/m2 CLR
23:16 45.0 °F 45.0 °F 30.12 in Calm     100 % 0.00 in 0.0 W/m2 CLR
23:21 44.6 °F 44.6 °F 30.13 in Calm     100 % 0.00 in 25.0 W/m2 CLR
23:26 44.8 °F 44.8 °F 30.13 in Calm     100 % 0.00 in 20.0 W/m2 CLR
23:31 44.8 °F 44.8 °F 30.13 in Calm     100 % 0.00 in 0.0 W/m2 CLR
23:36 44.6 °F 44.6 °F 30.13 in Calm     100 % 0.00 in 0.0 W/m2 CLR
23:41 44.4 °F 44.4 °F 30.13 in Calm     100 % 0.00 in 17.5 W/m2 CLR
23:46 44.4 °F 44.4 °F 30.13 in Calm     100 % 0.00 in 0.0 W/m2 CLR
23:51 44.1 °F 44.1 °F 30.13 in Calm     100 % 0.00 in 0.0 W/m2 CLR
23:56 44.1 °F 44.1 °F 30.13 in Calm     100 % 0.00 in 20.0 W/m2 CLR
Wether-Above
Compliments of Weather Underground - 2.25 mb
Welcome to Weather-Above
Cheddleton weather station supplies various organisations with data from our weather station one of them is the weather Underground this information displayed here is coming from the weather Underground server 

If any information is used please acknowledge the source to www weather-above.com or weather Underground